Rome, OR

1:01 PM MDT on April 25, 2015 (GMT -0600)
Mountain Home Air Force Base | | Change Station
CLOSE
Current Station
Airport
Location: Mountain Home,
Elevation: 2995 ft
Nearby Weather Stations

Elev 2995 ft 43.04 °N, 115.87 °W | Updated 18 minutes ago

Partly Cloudy
Partly Cloudy
55 °F
Feels Like 55 °F
N
9
Wind Variable Wind from WNW

Today
High -- | Low -- °F
--% Chance of Precip.
Yesterday
High -- | Low -- °F
Precip. -- in
6:53 AM 8:43 PM
Waxing Crescent, 48% visible
Pressure 29.78 in
Visibility 10.0 miles
Clouds Few 6000 ft
Overcast 7500 ft
Dew Point 27 °F
Humidity 33%
Rainfall 0.00 in
Snow Depth Not available.
UV 3 out of 12
Pollen 8.90 out of 12
Air Quality Not available.
Flu Activity Sporadic
SPECI KMUO 251843Z AUTO 30008KT 10SM FEW060 OVC075 13/M03 A2978 RMK AO2

More Conditions Fewer Conditions

Pressure 29.78 in
Visibility 10.0 miles
Clouds Few 6000 ft
Overcast 7500 ft
Dew Point 27 °F
Humidity 33%
Rainfall 0.00 in
Snow Depth Not available.
UV 3 out of 12
Pollen 8.90 out of 12
Air Quality Not available.
Flu Activity Sporadic
SPECI KMUO 251843Z AUTO 30008KT 10SM FEW060 OVC075 13/M03 A2978 RMK AO2

More Conditions Fewer Conditions

10-Day Weather Forecast

Almanac

Astronomy

Apr. 25, 2015 Rise Set
Actual Time
Civil Twilight
Nautical Twilight
Astronomical Twilight
Moon
Length of Visible Light
Length of Day
Tomorrow will be .
, % of the Moon is Illuminated

Today's Extremes

State Highs State Lows

Community

WunderPhotos

Upload Photos

1,816,768 photos uploaded!

WunderBlogs® & News

Nearby

Air Quality

  Air Quality AQ Index Pollutant
Not available.

Snow Depth

Station Depth Elevation

Earthquake Activity

City Distance Mag. Time & Date
Minimum magnitude displayed is 2.5.

Coastal Water Temperatures

Place Temperature

Stations

Nearby Weather Stations

Station Location Temp. Windchill Dew Point Humidity Wind Precip. Elev Updated Type